Time;durP1;ratioP1;P1;durP2;ratioP2;P2;SDS_P1;SDS_P2;PMS_P1;PMS_P2;Temp;Humidity;BMP_temperature;BMP_pressure;BME280_temperature;BME280_humidity;BME280_pressure;Samples;Min_cycle;Max_cycle;Signal;HPM_P1;HPM_P2
2023/05/31 00:00:06;;;;;;;7.83;1.57;;;;;;;12.57;54.23;100928.19;4192409;28;20293;-67
2023/05/31 00:02:33;;;;;;;5.10;1.93;;;;;;;12.58;54.03;100924.44;4173002;28;20256;-65
2023/05/31 00:04:59;;;;;;;7.27;1.87;;;;;;;12.47;54.02;100920.03;4176272;28;21544;-67
2023/05/31 00:07:26;;;;;;;8.20;1.90;;;;;;;12.52;54.26;100930.47;4176180;28;21486;-68
2023/05/31 00:09:52;;;;;;;8.87;2.20;;;;;;;12.46;54.31;100922.91;4203142;28;20323;-66
2023/05/31 00:12:19;;;;;;;4.57;2.10;;;;;;;12.35;54.44;100929.38;4182136;28;21193;-67
2023/05/31 00:14:46;;;;;;;7.87;2.50;;;;;;;12.29;54.87;100935.41;4189968;28;20240;-67
2023/05/31 00:17:13;;;;;;;5.70;1.70;;;;;;;12.33;54.78;100937.69;4193881;28;20309;-67
2023/05/31 00:19:42;;;;;;;6.93;2.00;;;;;;;12.22;55.20;100931.56;4186158;28;20864;-68
2023/05/31 00:22:10;;;;;;;7.23;2.20;;;;;;;12.18;55.57;100936.44;4202472;28;21120;-66
2023/05/31 00:24:36;;;;;;;5.50;2.00;;;;;;;12.11;55.78;100935.28;4173821;28;20244;-65
2023/05/31 00:27:03;;;;;;;4.97;1.50;;;;;;;12.20;55.25;100935.28;4172220;28;20230;-67
2023/05/31 00:29:30;;;;;;;5.40;1.83;;;;;;;12.16;55.55;100927.56;4190106;28;20241;-67
2023/05/31 00:31:57;;;;;;;5.67;2.20;;;;;;;12.15;55.74;100932.16;4183494;28;21653;-69
2023/05/31 00:34:23;;;;;;;6.27;2.00;;;;;;;12.06;56.22;100927.59;4188583;28;20239;-67
2023/05/31 00:36:50;;;;;;;6.20;2.30;;;;;;;12.03;56.51;100930.56;4192371;28;20696;-67
2023/05/31 00:39:17;;;;;;;5.77;2.40;;;;;;;12.02;57.13;100937.88;4188105;28;21324;-67
2023/05/31 00:41:43;;;;;;;10.83;2.00;;;;;;;12.07;57.33;100936.56;4187198;28;21145;-67
2023/05/31 00:44:10;;;;;;;7.90;2.20;;;;;;;11.99;57.64;100930.00;4177890;28;20229;-68
2023/05/31 00:46:38;;;;;;;8.23;2.20;;;;;;;11.98;58.10;100935.59;4190537;28;21337;-67
2023/05/31 00:49:05;;;;;;;9.83;2.30;;;;;;;11.76;58.67;100939.41;4198954;28;20272;-67
2023/05/31 00:51:32;;;;;;;8.23;2.33;;;;;;;11.72;59.03;100942.44;4189559;28;20235;-68
2023/05/31 00:53:59;;;;;;;11.93;2.63;;;;;;;11.74;58.80;100934.13;4168514;28;21188;-68
2023/05/31 00:56:26;;;;;;;7.70;2.37;;;;;;;11.62;59.44;100936.13;4184644;28;20233;-68
2023/05/31 00:58:55;;;;;;;9.20;2.50;;;;;;;11.53;59.61;100935.13;4195329;28;21046;-67
2023/05/31 01:01:25;;;;;;;10.03;2.60;;;;;;;11.32;60.01;100940.66;4171456;28;20319;-66
2023/05/31 01:03:53;;;;;;;8.23;2.20;;;;;;;11.29;59.90;100945.50;4167737;28;20376;-68
2023/05/31 01:06:20;;;;;;;10.23;2.20;;;;;;;11.25;59.85;100943.06;4187339;28;23232;-65
2023/05/31 01:08:46;;;;;;;5.00;2.10;;;;;;;11.22;59.70;100942.50;4190016;28;20239;-68
2023/05/31 01:11:40;;;;;;;12.00;2.20;;;;;;;11.07;60.48;100948.31;4211500;28;21224;-66
2023/05/31 01:14:24;;;;;;;9.27;2.57;;;;;;;10.99;60.89;100952.72;4191224;28;21165;-67
2023/05/31 01:16:54;;;;;;;9.17;2.30;;;;;;;10.95;60.88;100954.84;4185489;28;20277;-66
2023/05/31 01:19:41;;;;;;;12.00;2.20;;;;;;;10.90;60.96;100951.69;4189433;28;20234;-67
2023/05/31 01:22:17;;;;;;;4.17;2.07;;;;;;;10.97;60.62;100963.69;4196428;28;20284;-66
2023/05/31 01:24:53;;;;;;;6.03;1.93;;;;;;;10.87;61.16;100962.78;4182364;28;20335;-66
2023/05/31 01:27:20;;;;;;;5.33;2.33;;;;;;;10.79;61.44;100968.91;4189440;28;23242;-65
2023/05/31 01:29:48;;;;;;;7.83;2.33;;;;;;;10.68;61.92;100968.97;4185360;28;20331;-65
2023/05/31 01:32:16;;;;;;;7.13;1.93;;;;;;;10.74;61.61;100965.72;4180806;28;20235;-65
2023/05/31 01:34:46;;;;;;;5.27;2.13;;;;;;;10.75;61.46;100971.03;4192392;28;20312;-68
2023/05/31 01:37:12;;;;;;;10.93;2.60;;;;;;;10.78;61.44;100978.84;4191727;28;20249;-68
2023/05/31 01:39:39;;;;;;;6.80;2.40;;;;;;;10.81;61.52;100976.88;4181828;28;20230;-68
2023/05/31 01:42:08;;;;;;;3.63;1.77;;;;;;;10.73;62.07;100974.81;4187958;28;20307;-67
2023/05/31 01:44:35;;;;;;;11.37;2.40;;;;;;;10.53;62.40;100976.59;4174647;28;20230;-66
2023/05/31 01:47:02;;;;;;;6.97;2.20;;;;;;;10.42;63.16;100977.53;4188902;28;21117;-65
2023/05/31 01:49:28;;;;;;;13.37;2.77;;;;;;;10.18;64.24;100983.16;4196352;28;20237;-67
2023/05/31 01:51:56;;;;;;;14.37;2.70;;;;;;;10.10;64.42;100981.97;4181277;28;20288;-67
2023/05/31 01:54:23;;;;;;;7.93;2.60;;;;;;;10.11;64.41;100982.84;4174050;28;21088;-67
2023/05/31 01:56:50;;;;;;;10.80;2.53;;;;;;;10.04;64.65;100979.78;4186712;28;20238;-66
2023/05/31 01:59:17;;;;;;;13.90;3.03;;;;;;;10.01;64.75;100971.94;4187714;28;20441;-66
2023/05/31 02:01:44;;;;;;;13.60;3.20;;;;;;;10.00;65.09;100981.06;4181155;28;20234;-65
2023/05/31 02:04:10;;;;;;;6.33;2.47;;;;;;;10.01;64.83;100976.50;4177513;28;20230;-67
2023/05/31 02:06:37;;;;;;;6.63;2.50;;;;;;;9.98;64.98;100977.63;4193092;28;20234;-67
2023/05/31 02:09:08;;;;;;;7.20;2.30;;;;;;;9.98;64.65;100977.63;4185777;28;25749;-66
2023/05/31 02:11:34;;;;;;;5.53;2.47;;;;;;;10.01;64.41;100985.47;4174252;28;21747;-65
2023/05/31 02:14:01;;;;;;;9.43;2.40;;;;;;;9.86;65.53;100975.97;4181976;28;20286;-66
2023/05/31 02:16:27;;;;;;;6.37;2.70;;;;;;;9.79;65.61;100989.13;4190168;28;20348;-66
2023/05/31 02:18:55;;;;;;;8.33;2.50;;;;;;;9.87;65.28;100977.66;4184744;28;21030;-68
2023/05/31 02:21:23;;;;;;;7.50;2.40;;;;;;;9.86;65.34;100986.78;4164577;28;20301;-67
2023/05/31 02:23:49;;;;;;;6.07;2.00;;;;;;;9.72;65.82;100980.66;4210071;28;21289;-68
2023/05/31 02:26:16;;;;;;;9.53;2.50;;;;;;;9.68;65.61;100982.75;4169092;28;20304;-67
2023/05/31 02:28:43;;;;;;;5.50;2.20;;;;;;;9.66;65.56;100983.88;4176910;28;21700;-67
2023/05/31 02:31:10;;;;;;;9.37;2.53;;;;;;;9.62;66.04;100985.13;4198066;28;20322;-67
2023/05/31 02:33:36;;;;;;;5.63;2.03;;;;;;;9.54;66.54;100988.47;4213062;28;20486;-66
2023/05/31 02:36:06;;;;;;;6.47;2.73;;;;;;;9.66;66.03;100997.41;4229936;28;20546;-67
2023/05/31 02:38:33;;;;;;;3.83;2.03;;;;;;;9.76;65.71;100997.50;4218224;28;20235;-68
2023/05/31 02:41:00;;;;;;;9.93;2.37;;;;;;;9.74;66.16;101000.31;4264627;28;20673;-69
2023/05/31 02:43:27;;;;;;;7.07;2.17;;;;;;;9.63;66.37;100993.13;4300418;28;20245;-67
2023/05/31 02:45:54;;;;;;;7.47;2.60;;;;;;;9.67;66.33;100985.59;4327059;28;20244;-67
2023/05/31 02:48:21;;;;;;;6.07;2.33;;;;;;;9.56;66.71;100997.31;4343229;28;20307;-68
2023/05/31 02:50:48;;;;;;;7.17;2.23;;;;;;;9.61;66.33;100995.06;4360825;28;20233;-68
2023/05/31 02:53:18;;;;;;;6.20;2.10;;;;;;;9.64;66.12;100991.25;4291221;28;20285;-70
2023/05/31 02:55:46;;;;;;;7.03;2.10;;;;;;;9.65;66.10;101004.66;4237654;28;20315;-67
2023/05/31 02:58:14;;;;;;;6.07;2.17;;;;;;;9.54;66.26;100996.56;4310795;28;20239;-66
2023/05/31 03:00:41;;;;;;;7.73;1.77;;;;;;;9.65;66.18;101007.38;4224911;28;20251;-68
2023/05/31 03:03:08;;;;;;;4.03;2.10;;;;;;;9.51;66.42;100996.84;4246937;28;20298;-67
2023/05/31 03:05:35;;;;;;;6.47;2.00;;;;;;;9.48;66.96;101002.50;4234179;28;20232;-67
2023/05/31 03:08:01;;;;;;;5.67;2.50;;;;;;;9.39;67.00;101000.53;4246411;28;21245;-66
2023/05/31 03:10:28;;;;;;;7.47;2.10;;;;;;;9.47;66.74;101006.19;4233798;28;20277;-67
2023/05/31 03:12:55;;;;;;;5.77;2.10;;;;;;;9.40;67.08;101002.25;4248033;28;21232;-68
2023/05/31 03:15:21;;;;;;;10.17;2.07;;;;;;;9.44;66.64;100999.19;4204090;28;20236;-66
2023/05/31 03:17:48;;;;;;;9.23;2.33;;;;;;;9.67;66.24;101013.50;4200100;28;21847;-67
2023/05/31 03:20:15;;;;;;;8.97;2.80;;;;;;;9.70;66.44;101009.69;4189863;28;20473;-67
2023/05/31 03:22:42;;;;;;;14.87;2.03;;;;;;;9.59;66.15;101002.44;4205072;28;20595;-68
2023/05/31 03:25:09;;;;;;;5.43;2.13;;;;;;;9.56;66.73;101005.44;4216484;28;21563;-67
2023/05/31 03:27:35;;;;;;;9.53;2.60;;;;;;;9.55;66.88;101001.00;4215493;28;25672;-68
2023/05/31 03:30:02;;;;;;;8.20;2.30;;;;;;;9.69;66.37;101010.69;4194561;28;20384;-68
2023/05/31 03:32:29;;;;;;;8.20;2.40;;;;;;;9.66;66.37;101011.78;4193800;28;20279;-68
2023/05/31 03:34:59;;;;;;;9.37;2.40;;;;;;;9.73;66.51;101003.16;4215286;28;20380;-68
2023/05/31 03:37:25;;;;;;;7.43;1.93;;;;;;;9.83;66.15;101012.22;4195009;28;25428;-66
2023/05/31 03:39:52;;;;;;;5.43;1.90;;;;;;;9.98;65.72;101010.06;4204742;28;21113;-68
2023/05/31 03:42:19;;;;;;;7.10;2.20;;;;;;;9.97;65.31;101011.91;4209866;28;20256;-67
2023/05/31 03:44:46;;;;;;;6.27;1.83;;;;;;;10.05;65.20;101013.97;4210475;28;20240;-67
2023/05/31 03:47:12;;;;;;;12.33;4.47;;;;;;;10.12;64.96;101020.59;4199545;28;23423;-66
2023/05/31 03:49:39;;;;;;;8.10;2.20;;;;;;;10.25;64.57;101011.41;4215598;28;20245;-66
2023/05/31 03:52:08;;;;;;;5.87;1.90;;;;;;;10.37;64.27;101012.25;4235067;28;20303;-66
2023/05/31 03:54:35;;;;;;;8.57;1.83;;;;;;;10.66;63.37;101009.72;4213725;28;20327;-65
2023/05/31 03:57:02;;;;;;;5.27;1.80;;;;;;;10.64;63.48;101014.41;4184080;28;20237;-66
2023/05/31 03:59:29;;;;;;;4.20;1.77;;;;;;;10.77;62.98;101014.19;4197213;28;20233;-67
2023/05/31 04:01:55;;;;;;;6.93;2.60;;;;;;;10.72;63.17;101011.06;4202709;28;25620;-66
2023/05/31 04:04:22;;;;;;;7.87;2.20;;;;;;;10.89;62.64;101007.69;4212883;28;20637;-67
2023/05/31 04:06:49;;;;;;;7.30;2.07;;;;;;;10.89;62.15;101006.84;4187583;28;20237;-68
2023/05/31 04:09:16;;;;;;;9.43;2.40;;;;;;;10.81;62.65;101001.25;4187119;28;20583;-66
2023/05/31 04:11:43;;;;;;;7.93;2.30;;;;;;;10.86;62.37;101002.56;4186897;28;20315;-68
2023/05/31 04:14:09;;;;;;;6.13;2.10;;;;;;;10.75;62.32;101005.34;4205231;28;20237;-67
2023/05/31 04:16:36;;;;;;;9.87;2.23;;;;;;;10.83;62.31;101010.09;4209837;28;25459;-68
2023/05/31 04:19:03;;;;;;;8.30;1.90;;;;;;;10.98;62.31;101011.47;4211201;28;21089;-67
2023/05/31 04:21:31;;;;;;;15.57;2.10;;;;;;;11.07;61.86;101020.63;4210411;28;23295;-66
2023/05/31 04:23:58;;;;;;;6.60;2.10;;;;;;;10.97;62.27;101006.16;4219931;28;20298;-64
2023/05/31 04:26:25;;;;;;;9.97;2.27;;;;;;;11.03;61.87;101008.31;4197219;28;20245;-62
2023/05/31 04:28:53;;;;;;;8.27;1.83;;;;;;;11.13;61.41;101009.22;4188080;28;20242;-65
2023/05/31 04:31:24;;;;;;;12.90;2.20;;;;;;;11.31;61.32;101009.41;4182734;28;21246;-63
2023/05/31 04:34:04;;;;;;;11.93;2.07;;;;;;;11.25;61.22;101001.84;4181302;28;20309;-62
2023/05/31 04:36:39;;;;;;;9.77;2.13;;;;;;;11.44;60.61;101011.88;4200049;28;21159;-64
2023/05/31 04:39:09;;;;;;;12.33;1.93;;;;;;;11.54;60.16;101009.19;4209557;28;20236;-63
2023/05/31 04:41:36;;;;;;;4.20;1.70;;;;;;;11.45;60.41;101007.31;4195415;28;20233;-69
2023/05/31 04:44:02;;;;;;;7.13;2.10;;;;;;;11.44;59.58;101006.47;4182200;28;21705;-68
2023/05/31 04:46:30;;;;;;;7.37;1.80;;;;;;;11.48;59.80;101005.19;4218977;28;20232;-64
2023/05/31 04:48:57;;;;;;;7.70;2.07;;;;;;;11.46;59.71;101009.03;4210738;28;20245;-63
2023/05/31 04:51:24;;;;;;;6.77;2.00;;;;;;;11.56;59.65;101004.50;4208485;28;20553;-63
2023/05/31 04:53:50;;;;;;;10.30;1.83;;;;;;;11.71;59.44;101004.94;4185630;28;23212;-63
2023/05/31 04:56:17;;;;;;;6.67;1.70;;;;;;;11.80;58.87;101000.53;4201850;28;20299;-66
2023/05/31 04:58:44;;;;;;;4.03;1.50;;;;;;;11.89;58.51;101000.53;4182364;28;20239;-64
2023/05/31 05:01:14;;;;;;;7.47;2.00;;;;;;;12.13;57.94;101001.13;4200135;28;20233;-66
2023/05/31 05:03:41;;;;;;;7.70;1.97;;;;;;;12.23;57.69;100996.56;4202732;28;20435;-64
2023/05/31 05:06:18;;;;;;;7.70;1.80;;;;;;;12.20;61.02;100995.00;4201867;28;20246;-66
2023/05/31 05:08:45;;;;;;;7.03;1.70;;;;;;;12.31;57.18;100993.97;4227697;28;20236;-70
2023/05/31 05:11:12;;;;;;;8.33;1.87;;;;;;;12.39;57.03;100992.38;4209065;28;21169;-67
2023/05/31 05:13:39;;;;;;;10.63;1.50;;;;;;;12.31;57.74;100993.97;4219608;28;20286;-64
2023/05/31 05:16:05;;;;;;;9.33;1.80;;;;;;;12.46;57.09;100988.94;4219698;28;20337;-64
2023/05/31 05:18:32;;;;;;;5.17;1.70;;;;;;;12.78;56.48;100995.84;4202506;28;25517;-63
2023/05/31 05:20:59;;;;;;;4.70;1.30;;;;;;;12.94;56.11;100992.53;4253924;28;21864;-69
2023/05/31 05:23:26;;;;;;;4.43;1.60;;;;;;;13.13;55.40;100996.16;4214890;28;25571;-67
2023/05/31 05:25:53;;;;;;;6.00;1.73;;;;;;;13.69;54.70;101001.59;4218697;28;20314;-67
2023/05/31 05:28:19;;;;;;;12.67;2.20;;;;;;;13.83;53.60;100998.31;4187162;28;20644;-64
2023/05/31 05:30:46;;;;;;;4.30;1.50;;;;;;;14.35;51.31;101004.91;4215308;28;20284;-65
2023/05/31 05:33:12;;;;;;;8.47;1.83;;;;;;;14.83;50.32;100991.78;4195840;28;21209;-67
2023/05/31 05:35:39;;;;;;;7.07;1.97;;;;;;;15.72;48.79;100999.63;4174702;28;21511;-65
2023/05/31 05:38:06;;;;;;;6.60;1.60;;;;;;;16.04;46.64;100995.28;4225158;28;20323;-62
2023/05/31 05:40:32;;;;;;;9.40;1.87;;;;;;;16.61;44.37;100994.38;4230463;28;20252;-67
2023/05/31 05:42:59;;;;;;;10.30;1.80;;;;;;;17.32;43.34;100997.28;4199892;28;20621;-67
2023/05/31 05:45:28;;;;;;;10.10;2.00;;;;;;;17.43;42.37;100994.13;4188298;28;20336;-64
2023/05/31 05:47:55;;;;;;;8.90;1.60;;;;;;;17.09;43.65;100994.44;4187404;28;20239;-64
2023/05/31 05:50:22;;;;;;;7.27;1.77;;;;;;;18.35;40.93;100994.41;4189887;28;23577;-65
2023/05/31 05:52:50;;;;;;;3.10;1.30;;;;;;;18.81;40.02;100994.25;4192782;28;21660;-66
2023/05/31 05:55:18;;;;;;;7.47;1.87;;;;;;;19.25;37.46;100995.31;4197450;28;20238;-64
2023/05/31 05:57:44;;;;;;;9.73;1.33;;;;;;;19.36;37.57;100996.72;4192444;28;20285;-64
2023/05/31 06:00:11;;;;;;;4.57;1.23;;;;;;;20.96;35.27;100996.56;4202960;28;21198;-66
2023/05/31 06:02:38;;;;;;;7.90;1.63;;;;;;;21.90;33.97;100994.22;4175065;28;21814;-64
2023/05/31 06:05:05;;;;;;;3.50;1.50;;;;;;;22.41;32.53;100997.47;4194081;28;20310;-64
2023/05/31 06:07:32;;;;;;;6.50;1.67;;;;;;;22.30;32.50;100994.25;4201359;28;20239;-62
2023/05/31 06:10:00;;;;;;;7.73;1.47;;;;;;;22.86;30.95;100994.00;4211871;28;20266;-64
2023/05/31 06:12:26;;;;;;;9.50;1.92;;;;;;;23.48;30.96;100999.16;4200011;28;20239;-65
2023/05/31 06:14:53;;;;;;;9.90;1.80;;;;;;;24.73;28.09;100999.59;4211586;28;20237;-65
2023/05/31 06:17:21;;;;;;;7.97;1.63;;;;;;;22.22;30.90;100988.09;4205699;28;23499;-65
2023/05/31 06:19:48;;;;;;;6.55;1.77;;;;;;;22.23;30.76;100990.63;4177451;28;23486;-62
2023/05/31 06:22:15;;;;;;;3.15;1.48;;;;;;;21.69;30.91;100986.97;4217275;28;20241;-67
2023/05/31 06:24:42;;;;;;;1.93;0.90;;;;;;;24.56;27.39;100993.75;4175016;28;20400;-66
2023/05/31 06:27:09;;;;;;;3.90;1.42;;;;;;;25.44;25.79;100983.47;4190887;28;20772;-68
2023/05/31 06:29:36;;;;;;;5.80;1.17;;;;;;;24.66;26.97;100992.19;4196220;28;22933;-66
2023/05/31 06:32:03;;;;;;;4.65;1.42;;;;;;;23.79;26.86;100987.31;4180328;28;21648;-68
2023/05/31 06:34:29;;;;;;;7.38;1.27;;;;;;;22.68;27.30;100975.34;4219031;28;21496;-68
2023/05/31 06:37:00;;;;;;;6.57;1.50;;;;;;;20.75;30.69;100978.22;4205057;28;20317;-68
2023/05/31 06:39:27;;;;;;;4.77;1.27;;;;;;;21.38;29.22;100980.03;4210843;28;20276;-68
2023/05/31 06:41:53;;;;;;;5.15;1.80;;;;;;;25.08;25.55;100985.16;4239547;28;20249;-63
2023/05/31 06:44:20;;;;;;;5.18;1.20;;;;;;;26.50;23.08;100982.13;4232261;28;22197;-64
2023/05/31 06:46:47;;;;;;;6.60;1.27;;;;;;;24.35;24.96;100987.56;4212549;28;20448;-69
2023/05/31 06:49:13;;;;;;;6.30;1.13;;;;;;;26.53;22.63;100976.06;4187493;28;21216;-63
2023/05/31 06:51:40;;;;;;;3.85;1.23;;;;;;;25.67;22.84;100979.09;4188352;28;21919;-66
2023/05/31 06:54:07;;;;;;;3.80;1.30;;;;;;;23.98;25.86;100979.97;4205110;28;21163;-62
2023/05/31 06:56:34;;;;;;;3.10;1.17;;;;;;;27.24;21.10;100976.03;4200309;28;20400;-64
2023/05/31 06:59:01;;;;;;;2.92;1.00;;;;;;;26.25;21.04;100977.63;4230184;28;21636;-66
2023/05/31 07:01:28;;;;;;;4.57;1.27;;;;;;;26.76;20.27;100972.47;4202513;28;20237;-67
2023/05/31 07:03:58;;;;;;;2.55;1.00;;;;;;;24.64;22.07;100968.56;4286366;28;22488;-67
2023/05/31 07:06:28;;;;;;;2.90;0.90;;;;;;;25.42;21.17;100967.09;4285766;28;20314;-65
2023/05/31 07:08:57;;;;;;;5.70;0.98;;;;;;;26.56;20.88;100967.25;4261045;28;20582;-68
2023/05/31 07:16:26;;;;;;;3.70;0.88;;;;;;;26.45;20.43;100963.41;4316152;28;20523;-65
2023/05/31 07:18:53;;;;;;;2.17;0.90;;;;;;;27.18;19.24;100950.03;4348634;28;20243;-65
2023/05/31 07:21:20;;;;;;;5.47;1.33;;;;;;;25.04;21.15;100965.41;4305607;28;20444;-64
2023/05/31 07:23:50;;;;;;;3.92;1.05;;;;;;;23.74;22.68;100960.34;4337766;28;21950;-67
2023/05/31 07:26:18;;;;;;;3.83;1.13;;;;;;;23.59;23.23;100962.53;4403516;28;20345;-68
2023/05/31 07:28:46;;;;;;;4.13;1.53;;;;;;;23.14;23.08;100945.94;4368841;28;21150;-71
2023/05/31 07:31:15;;;;;;;2.43;0.90;;;;;;;23.33;23.40;100952.47;4394944;28;20235;-65
2023/05/31 07:33:47;;;;;;;2.63;0.90;;;;;;;22.78;23.21;100951.78;4339434;28;20316;-67
2023/05/31 07:36:15;;;;;;;2.57;1.27;;;;;;;21.27;23.79;100947.56;4370133;28;20430;-67
2023/05/31 07:38:42;;;;;;;3.22;0.90;;;;;;;21.88;23.32;100945.84;4347141;28;20416;-70
2023/05/31 07:41:09;;;;;;;2.53;1.00;;;;;;;21.74;22.66;100940.31;4331129;28;20832;-68
2023/05/31 07:43:36;;;;;;;2.20;1.00;;;;;;;20.85;24.21;100934.69;4335867;28;20235;-66
2023/05/31 07:46:40;;;;;;;2.40;1.00;;;;;;;21.09;25.08;100934.38;4382656;27;21968;-48
2023/05/31 07:49:07;;;;;;;7.47;1.20;;;;;;;21.97;24.79;100937.19;4340985;28;20658;-55
2023/05/31 07:51:34;;;;;;;1.63;0.87;;;;;;;22.27;24.11;100939.53;4356645;28;20325;-66
2023/05/31 07:54:02;;;;;;;1.87;1.03;;;;;;;22.28;23.90;100924.66;4344711;28;21916;-70
2023/05/31 07:56:30;;;;;;;1.80;0.90;;;;;;;21.42;21.76;100920.72;4351440;28;20237;-66
2023/05/31 07:58:57;;;;;;;3.40;1.17;;;;;;;22.05;21.00;100921.50;4352722;28;20226;-69
2023/05/31 08:01:24;;;;;;;3.60;1.00;;;;;;;22.36;22.62;100929.13;4375938;28;20786;-69
2023/05/31 08:03:54;;;;;;;10.03;1.10;;;;;;;21.40;22.24;100935.75;4357124;28;20609;-61
2023/05/31 08:06:22;;;;;;;1.30;0.70;;;;;;;21.48;21.51;100911.66;4351144;28;20275;-69
2023/05/31 08:08:51;;;;;;;1.60;1.00;;;;;;;21.89;23.45;100928.25;4337685;28;21210;-63
2023/05/31 08:11:18;;;;;;;5.67;1.80;;;;;;;21.27;24.76;100915.41;4382672;28;20493;-63
2023/05/31 08:13:45;;;;;;;5.20;1.10;;;;;;;21.62;24.35;100922.72;4398624;28;20614;-64
2023/05/31 08:16:12;;;;;;;5.47;0.80;;;;;;;21.94;23.44;100914.72;4352730;28;20241;-66
2023/05/31 08:18:39;;;;;;;4.47;1.37;;;;;;;21.21;24.67;100916.22;4339780;28;20258;-63
2023/05/31 08:21:09;;;;;;;5.63;1.30;;;;;;;20.49;25.29;100915.59;4368446;28;20239;-63
2023/05/31 08:23:36;;;;;;;7.28;1.23;;;;;;;20.99;25.49;100907.22;4337041;28;20928;-63
2023/05/31 08:26:04;;;;;;;3.47;0.90;;;;;;;19.80;25.37;100920.75;4462994;28;20628;-62
2023/05/31 08:28:34;;;;;;;3.67;1.00;;;;;;;20.72;25.62;100916.19;4472504;28;20440;-64
2023/05/31 08:31:05;;;;;;;4.77;1.10;;;;;;;20.48;26.93;100919.41;4472196;28;21051;-68
2023/05/31 08:33:33;;;;;;;4.57;1.10;;;;;;;20.12;27.24;100918.53;4454787;28;26127;-63
2023/05/31 08:36:03;;;;;;;5.20;0.80;;;;;;;20.03;25.63;100908.72;4450162;28;21602;-63
2023/05/31 08:38:33;;;;;;;6.97;1.53;;;;;;;20.10;26.69;100893.13;4446225;28;20252;-66
2023/05/31 08:41:02;;;;;;;4.17;0.90;;;;;;;19.66;25.91;100906.00;4455604;28;20232;-63
2023/05/31 08:43:30;;;;;;;1.70;0.80;;;;;;;20.59;25.48;100905.09;4453076;28;21154;-64
2023/05/31 08:45:58;;;;;;;8.37;1.17;;;;;;;20.01;25.23;100902.56;4485701;28;20654;-62
2023/05/31 08:48:33;;;;;;;4.30;0.90;;;;;;;19.58;26.64;100901.50;4466667;28;21692;-63
2023/05/31 08:51:01;;;;;;;2.83;1.30;;;;;;;19.94;25.73;100888.75;4428735;28;20234;-66
2023/05/31 08:53:30;;;;;;;3.33;1.13;;;;;;;20.17;25.58;100894.03;4524394;28;20306;-61
2023/05/31 08:55:58;;;;;;;4.47;0.90;;;;;;;20.17;26.45;100896.78;4439788;28;20229;-62
2023/05/31 08:58:28;;;;;;;2.97;1.10;;;;;;;19.61;26.11;100898.34;4419404;28;20239;-62
2023/05/31 09:00:56;;;;;;;1.87;0.90;;;;;;;19.61;25.25;100900.28;4420148;28;20414;-62
2023/05/31 09:03:23;;;;;;;7.17;0.80;;;;;;;19.54;25.17;100902.09;4408366;28;20432;-49
2023/05/31 09:05:55;;;;;;;6.80;1.10;;;;;;;19.48;25.35;100900.97;4338450;28;22792;-63
2023/05/31 09:08:24;;;;;;;3.67;1.23;;;;;;;20.43;24.16;100906.28;4433626;28;20403;-62
2023/05/31 09:10:54;;;;;;;1.67;0.83;;;;;;;20.02;24.73;100904.25;4403211;28;22529;-64
2023/05/31 09:13:21;;;;;;;4.43;1.10;;;;;;;20.37;25.44;100896.94;4404195;28;20249;-61
2023/05/31 09:15:49;;;;;;;4.33;1.37;;;;;;;20.79;23.90;100898.88;4332259;28;21103;-63
2023/05/31 09:18:20;;;;;;;3.70;1.07;;;;;;;20.23;22.50;100900.63;4353985;28;21553;-63
2023/05/31 09:20:53;;;;;;;4.90;1.20;;;;;;;20.47;22.85;100907.56;4399584;28;20229;-65
2023/05/31 09:23:20;;;;;;;2.23;1.00;;;;;;;20.19;24.83;100896.56;4407442;28;20230;-66
2023/05/31 09:25:51;;;;;;;5.53;1.00;;;;;;;19.99;25.68;100910.16;4409049;28;20236;-44
2023/05/31 09:28:20;;;;;;;16.10;1.87;;;;;;;19.52;27.10;100902.31;4388118;28;20241;-64
2023/05/31 09:31:05;;;;;;;2.13;1.07;;;;;;;20.04;25.92;100894.75;4443164;28;22000;-67
2023/05/31 09:33:49;;;;;;;5.03;1.00;;;;;;;20.14;25.72;100888.91;4415529;28;20332;-68
2023/05/31 09:36:26;;;;;;;4.23;1.00;;;;;;;20.67;25.37;100880.19;4438859;28;21422;-69
2023/05/31 09:39:00;;;;;;;8.17;1.10;;;;;;;20.39;26.43;100883.81;4414496;28;22819;-70
2023/05/31 09:41:28;;;;;;;5.43;1.20;;;;;;;20.12;27.18;100891.03;4234608;28;20418;-65
2023/05/31 09:43:54;;;;;;;1.37;0.77;;;;;;;19.75;25.42;100887.53;4263412;28;22812;-68
2023/05/31 09:46:22;;;;;;;7.17;0.80;;;;;;;19.59;22.61;100891.38;4256733;28;20403;-65
2023/05/31 09:49:06;;;;;;;1.93;0.80;;;;;;;19.63;23.79;100890.78;4245497;28;20321;-67
2023/05/31 09:51:34;;;;;;;2.13;1.00;;;;;;;19.51;23.31;100889.63;4227764;28;20250;-66
2023/05/31 09:56:25;;;;;;;3.03;1.27;;;;;;;19.89;24.68;100889.38;4327356;27;20555;-68
2023/05/31 09:58:52;;;;;;;4.70;1.17;;;;;;;19.78;25.75;100890.72;4252489;28;20310;-68
2023/05/31 10:01:19;;;;;;;4.67;0.87;;;;;;;19.95;25.40;100882.22;4216747;28;24981;-67
2023/05/31 10:03:48;;;;;;;4.90;1.00;;;;;;;20.04;24.89;100870.03;4225053;28;20282;-67
2023/05/31 10:06:16;;;;;;;3.87;1.03;;;;;;;19.93;24.53;100871.44;4237357;28;20238;-66
2023/05/31 10:08:46;;;;;;;2.33;0.97;;;;;;;20.11;23.82;100868.19;4217037;28;20292;-65
2023/05/31 10:11:16;;;;;;;3.70;0.90;;;;;;;20.52;23.45;100868.44;4256813;28;21155;-67
2023/05/31 10:13:44;;;;;;;4.00;1.00;;;;;;;20.30;23.39;100860.28;4225497;28;20246;-68
2023/05/31 10:16:11;;;;;;;3.17;1.10;;;;;;;20.42;22.03;100863.31;4246278;28;20239;-68
2023/05/31 10:18:42;;;;;;;2.57;0.90;;;;;;;20.07;23.53;100860.53;4269045;28;20322;-67
2023/05/31 10:21:11;;;;;;;9.13;1.10;;;;;;;20.27;25.98;100864.28;4241741;28;21804;-68
2023/05/31 10:23:59;;;;;;;2.63;0.80;;;;;;;20.58;23.18;100856.63;4394445;28;20223;-74
2023/05/31 10:26:43;;;;;;;2.53;0.93;;;;;;;20.80;23.26;100867.56;4446106;28;21563;-67
2023/05/31 10:29:11;;;;;;;1.97;0.90;;;;;;;21.05;22.44;100862.38;4478958;28;20343;-68
2023/05/31 10:31:50;;;;;;;4.53;1.03;;;;;;;20.38;23.30;100857.38;4409211;28;20237;-66
2023/05/31 10:34:28;;;;;;;4.00;1.00;;;;;;;20.11;23.67;100845.34;4462352;28;21109;-71
2023/05/31 10:36:56;;;;;;;4.63;0.87;;;;;;;20.48;23.89;100859.75;4468625;28;20616;-69
2023/05/31 10:39:35;;;;;;;1.90;1.10;;;;;;;20.70;23.70;100830.22;4451202;28;20231;-66
2023/05/31 10:42:20;;;;;;;2.90;0.90;;;;;;;20.90;22.24;100859.78;4437200;28;20263;-65
2023/05/31 10:44:54;;;;;;;7.10;1.10;;;;;;;21.34;23.55;100852.06;4453442;28;20239;-69
2023/05/31 10:47:29;;;;;;;2.00;1.10;;;;;;;21.58;23.49;100852.56;4429603;28;20569;-66
2023/05/31 10:50:00;;;;;;;4.53;1.20;;;;;;;21.37;23.69;100843.41;4450363;28;20233;-68
2023/05/31 10:52:30;;;;;;;4.37;1.00;;;;;;;21.35;23.68;100845.50;4464696;28;20283;-68
2023/05/31 10:55:15;;;;;;;1.50;0.80;;;;;;;21.37;21.98;100843.41;4454018;28;20244;-66
2023/05/31 10:57:42;;;;;;;5.03;1.07;;;;;;;20.98;22.87;100847.72;4232423;28;20317;-67
2023/05/31 11:00:13;;;;;;;1.57;0.90;;;;;;;20.87;23.73;100843.66;4238457;28;20236;-67
2023/05/31 11:02:52;;;;;;;6.03;1.10;;;;;;;21.35;24.11;100832.59;4510662;28;21501;-70
2023/05/31 11:05:21;;;;;;;13.90;1.30;;;;;;;21.33;22.19;100850.38;4514812;28;20949;-67
2023/05/31 11:07:50;;;;;;;4.17;1.20;;;;;;;21.21;22.19;100833.63;4421635;28;20256;-67
2023/05/31 11:10:28;;;;;;;2.23;1.13;;;;;;;21.09;22.57;100833.38;4391936;28;20237;-68
2023/05/31 11:12:57;;;;;;;7.13;1.40;;;;;;;21.68;21.46;100841.97;4260257;28;20255;-66
2023/05/31 11:15:38;;;;;;;2.87;1.10;;;;;;;21.65;21.14;100847.91;4280228;28;21169;-67
2023/05/31 11:18:12;;;;;;;5.17;1.13;;;;;;;21.17;22.46;100824.94;4417552;28;20838;-65
2023/05/31 11:20:41;;;;;;;3.30;0.97;;;;;;;21.46;21.51;100831.13;4379206;28;20597;-69
2023/05/31 11:23:28;;;;;;;2.17;1.07;;;;;;;21.82;21.05;100829.06;4294957;28;20278;-69
2023/05/31 11:26:18;;;;;;;3.57;1.20;;;;;;;21.80;21.08;100820.97;4435134;28;20272;-68
2023/05/31 11:28:54;;;;;;;4.10;1.00;;;;;;;21.70;21.88;100826.09;4544268;28;21917;-73
2023/05/31 11:31:48;;;;;;;2.57;0.87;;;;;;;21.46;22.83;100824.75;4530621;28;20228;-67
2023/05/31 11:34:27;;;;;;;7.53;1.47;;;;;;;21.91;22.80;100821.41;4329009;28;20639;-69
2023/05/31 11:37:00;;;;;;;2.10;1.13;;;;;;;21.78;21.01;100811.25;4218724;28;20262;-69
2023/05/31 11:39:27;;;;;;;3.13;1.20;;;;;;;21.52;21.41;100815.66;4292386;28;20299;-69
2023/05/31 11:41:54;;;;;;;3.97;1.30;;;;;;;22.23;22.58;100805.88;4249036;28;20686;-67